createdAt,value
2022-12-07T00:01:21.429Z,9.02
2022-12-07T00:03:51.274Z,8.70
2022-12-07T00:06:19.872Z,8.15
2022-12-07T00:08:48.895Z,8.73
2022-12-07T00:11:21.649Z,8.38
2022-12-07T00:13:52.929Z,9.10
2022-12-07T00:16:22.985Z,9.30
2022-12-07T00:18:51.346Z,9.07
2022-12-07T00:21:21.700Z,8.32
2022-12-07T00:23:51.261Z,8.10
2022-12-07T00:26:22.163Z,8.70
2022-12-07T00:28:51.677Z,9.10
2022-12-07T00:31:21.299Z,8.32
2022-12-07T00:33:50.097Z,9.00
2022-12-07T00:36:26.370Z,9.00
2022-12-07T00:38:55.620Z,9.32
2022-12-07T00:41:26.933Z,8.65
2022-12-07T00:43:55.826Z,8.75
2022-12-07T00:46:24.811Z,8.48
2022-12-07T00:48:53.851Z,8.93
2022-12-07T00:51:24.823Z,9.30
2022-12-07T00:53:53.223Z,8.05
2022-12-07T00:56:23.468Z,9.00
2022-12-07T00:58:57.820Z,8.20
2022-12-07T01:01:26.893Z,8.32
2022-12-07T01:03:55.296Z,8.07
2022-12-07T01:06:25.712Z,7.60
2022-12-07T01:08:53.801Z,7.38
2022-12-07T01:11:24.536Z,7.97
2022-12-07T01:13:53.111Z,7.97
2022-12-07T01:16:23.726Z,9.15
2022-12-07T01:18:53.588Z,8.30
2022-12-07T01:21:23.821Z,6.68
2022-12-07T01:23:52.867Z,7.50
2022-12-07T01:26:24.110Z,7.80
2022-12-07T01:28:52.527Z,8.82
2022-12-07T01:31:24.161Z,7.30
2022-12-07T01:33:54.596Z,7.70
2022-12-07T01:36:24.744Z,7.40
2022-12-07T01:38:57.691Z,7.72
2022-12-07T01:41:27.350Z,7.75
2022-12-07T01:44:14.751Z,8.55
2022-12-07T01:46:46.373Z,8.10
2022-12-07T01:49:23.019Z,7.75
2022-12-07T01:51:53.891Z,7.38
2022-12-07T01:54:23.443Z,7.60
2022-12-07T01:56:55.113Z,7.53
2022-12-07T01:59:26.773Z,7.65
2022-12-07T02:01:57.901Z,7.53
2022-12-07T02:04:26.517Z,8.18
2022-12-07T02:06:55.275Z,7.78
2022-12-07T02:09:23.309Z,9.10
2022-12-07T02:11:52.113Z,8.48
2022-12-07T02:14:20.116Z,7.68
2022-12-07T02:17:07.499Z,8.00
2022-12-07T02:20:10.385Z,7.47
2022-12-07T02:23:06.252Z,8.73
2022-12-07T02:25:55.952Z,8.25
2022-12-07T02:28:31.146Z,8.10
2022-12-07T02:31:06.078Z,8.15
2022-12-07T02:33:38.629Z,7.95
2022-12-07T02:36:10.332Z,8.70
2022-12-07T02:38:43.281Z,7.82
2022-12-07T02:41:15.177Z,8.90
2022-12-07T02:43:47.057Z,8.18
2022-12-07T02:46:19.776Z,8.55
2022-12-07T02:48:48.443Z,9.02
2022-12-07T02:51:16.471Z,8.85
2022-12-07T02:53:46.310Z,9.68
2022-12-07T02:56:24.904Z,8.48
2022-12-07T02:59:02.789Z,9.18
2022-12-07T03:01:41.369Z,8.93
2022-12-07T03:04:20.539Z,8.75
2022-12-07T03:06:55.451Z,9.63
2022-12-07T03:09:30.517Z,10.07
2022-12-07T03:12:06.163Z,9.10
2022-12-07T03:14:37.718Z,9.30
2022-12-07T03:17:14.914Z,9.25
2022-12-07T03:19:45.279Z,9.43
2022-12-07T03:22:15.902Z,8.05
2022-12-07T03:24:48.640Z,7.60
2022-12-07T03:27:20.796Z,8.35
2022-12-07T03:29:52.132Z,6.45
2022-12-07T03:32:27.132Z,8.10
2022-12-07T03:35:02.556Z,7.70
2022-12-07T03:37:36.046Z,7.00
2022-12-07T03:40:14.888Z,7.47
2022-12-07T03:42:43.396Z,8.20
2022-12-07T03:45:12.584Z,8.43
2022-12-07T03:47:50.233Z,8.68
2022-12-07T03:50:27.378Z,8.52
2022-12-07T03:52:58.665Z,9.38
2022-12-07T03:55:31.004Z,8.48
2022-12-07T03:58:04.233Z,9.20
2022-12-07T04:00:32.606Z,9.57
2022-12-07T04:03:01.993Z,9.70
2022-12-07T04:05:30.457Z,10.63
2022-12-07T04:07:58.527Z,9.93
2022-12-07T04:10:26.590Z,9.20
2022-12-07T04:12:54.629Z,8.95
2022-12-07T04:15:22.646Z,10.00
2022-12-07T04:17:50.730Z,9.48
2022-12-07T04:20:20.321Z,9.00
2022-12-07T04:22:48.476Z,8.02
2022-12-07T04:25:16.617Z,8.02
2022-12-07T04:27:44.611Z,7.57
2022-12-07T04:30:13.046Z,7.90
2022-12-07T04:32:41.099Z,10.10
2022-12-07T04:35:09.828Z,9.00
2022-12-07T04:37:40.166Z,8.75
2022-12-07T04:40:12.005Z,7.50
2022-12-07T04:42:40.122Z,7.95
2022-12-07T04:45:09.458Z,7.90
2022-12-07T04:47:37.679Z,7.30
2022-12-07T04:50:06.864Z,7.45
2022-12-07T04:52:34.931Z,6.18
2022-12-07T04:55:04.530Z,7.78
2022-12-07T04:57:32.514Z,7.45
2022-12-07T05:00:00.857Z,7.30
2022-12-07T05:02:29.168Z,7.05
2022-12-07T05:04:57.245Z,6.47
2022-12-07T05:07:25.255Z,5.90
2022-12-07T05:09:53.231Z,6.50
2022-12-07T05:12:22.573Z,6.93
2022-12-07T05:14:50.550Z,6.32
2022-12-07T05:17:18.541Z,5.97
2022-12-07T05:19:46.545Z,4.97
2022-12-07T05:22:15.154Z,5.15
2022-12-07T05:24:43.154Z,4.72
2022-12-07T05:27:11.143Z,5.07
2022-12-07T05:29:40.510Z,4.85
2022-12-07T05:32:08.547Z,5.72
2022-12-07T05:34:36.783Z,5.25
2022-12-07T05:37:04.896Z,5.30
2022-12-07T05:39:32.867Z,4.90
2022-12-07T05:42:15.850Z,6.35
2022-12-07T05:44:46.763Z,6.65
2022-12-07T05:47:15.778Z,6.20
2022-12-07T05:49:43.834Z,5.47
2022-12-07T05:52:11.886Z,5.40
2022-12-07T05:54:40.022Z,5.75
2022-12-07T05:57:08.095Z,5.35
2022-12-07T05:59:35.129Z,6.22
2022-12-07T06:02:06.606Z,6.35
2022-12-07T06:04:36.838Z,6.72
2022-12-07T06:07:04.941Z,6.25
2022-12-07T06:09:33.563Z,5.65
2022-12-07T06:12:18.943Z,5.65
2022-12-07T06:14:47.308Z,5.55
2022-12-07T06:17:17.539Z,5.68
2022-12-07T06:19:45.635Z,4.72
2022-12-07T06:22:14.520Z,5.10
2022-12-07T06:24:42.737Z,6.07
2022-12-07T06:27:11.777Z,5.80
2022-12-07T06:29:39.764Z,5.13
2022-12-07T06:32:07.811Z,5.05
2022-12-07T06:34:37.675Z,5.93
2022-12-07T06:37:05.842Z,5.75
2022-12-07T06:39:33.961Z,4.80
2022-12-07T06:42:01.932Z,5.13
2022-12-07T06:44:29.895Z,4.97
2022-12-07T06:47:18.814Z,5.43
2022-12-07T06:49:47.356Z,5.93
2022-12-07T06:52:15.325Z,6.28
2022-12-07T06:54:43.262Z,6.55
2022-12-07T06:57:11.201Z,7.35
2022-12-07T06:59:39.151Z,7.90
2022-12-07T07:02:07.367Z,10.70
2022-12-07T07:04:35.428Z,9.93
2022-12-07T07:07:04.743Z,11.02
2022-12-07T07:09:32.683Z,12.15
2022-12-07T07:12:00.670Z,12.95
2022-12-07T07:14:28.650Z,9.60
2022-12-07T07:16:56.741Z,7.82
2022-12-07T07:19:25.005Z,6.80
2022-12-07T07:21:52.978Z,6.13
2022-12-07T07:24:22.443Z,5.22
2022-12-07T07:26:50.453Z,5.50
2022-12-07T07:29:18.403Z,5.15
2022-12-07T07:31:46.354Z,4.82
2022-12-07T07:34:14.376Z,4.70
2022-12-07T07:36:42.617Z,4.97
2022-12-07T07:39:13.555Z,4.53
2022-12-07T07:41:42.876Z,4.70
2022-12-07T07:44:12.053Z,5.18
2022-12-07T07:46:40.314Z,4.88
2022-12-07T07:49:08.336Z,3.60
2022-12-07T07:51:36.320Z,3.20
2022-12-07T07:54:04.776Z,3.40
2022-12-07T07:56:33.091Z,3.90
2022-12-07T07:59:02.464Z,3.55
2022-12-07T08:01:30.561Z,4.07
2022-12-07T08:03:58.639Z,3.83
2022-12-07T08:06:31.852Z,3.55
2022-12-07T08:09:00.332Z,2.83
2022-12-07T08:11:28.271Z,3.30
2022-12-07T08:13:56.238Z,3.30
2022-12-07T08:16:25.747Z,3.63
2022-12-07T08:18:53.789Z,4.07
2022-12-07T08:21:22.143Z,3.90
2022-12-07T08:23:50.224Z,4.05
2022-12-07T08:26:18.825Z,5.15
2022-12-07T08:28:47.089Z,3.92
2022-12-07T08:31:17.902Z,3.60
2022-12-07T08:33:48.789Z,3.35
2022-12-07T08:36:17.849Z,4.15
2022-12-07T08:39:07.916Z,3.42
2022-12-07T08:41:34.359Z,3.45
2022-12-07T08:44:02.407Z,3.50
2022-12-07T08:46:35.566Z,3.35
2022-12-07T08:49:08.751Z,3.30
2022-12-07T08:51:36.970Z,3.55
2022-12-07T08:54:08.714Z,3.50
2022-12-07T08:56:36.928Z,3.30
2022-12-07T08:59:06.064Z,3.33
2022-12-07T09:01:34.893Z,3.78
2022-12-07T09:04:02.954Z,8.05
2022-12-07T09:06:32.435Z,36.90
2022-12-07T09:09:02.322Z,10.75
2022-12-07T09:11:30.637Z,8.40
2022-12-07T09:13:58.696Z,6.32
2022-12-07T09:16:26.738Z,4.40
2022-12-07T09:18:54.792Z,7.05
2022-12-07T09:21:22.856Z,9.95
2022-12-07T09:23:52.213Z,9.30
2022-12-07T09:26:20.184Z,7.63
2022-12-07T09:28:48.250Z,5.90
2022-12-07T09:31:25.133Z,4.60
2022-12-07T09:33:57.351Z,4.13
2022-12-07T09:36:25.408Z,3.17
2022-12-07T09:38:54.874Z,4.30
2022-12-07T09:41:24.572Z,4.22
2022-12-07T09:43:53.123Z,4.13
2022-12-07T09:46:23.163Z,4.00
2022-12-07T09:48:52.215Z,3.47
2022-12-07T09:51:24.873Z,2.97
2022-12-07T09:53:56.789Z,3.33
2022-12-07T09:56:25.946Z,3.75
2022-12-07T09:59:00.132Z,3.08
2022-12-07T10:01:31.699Z,5.55
2022-12-07T10:04:08.801Z,3.75
2022-12-07T10:06:36.839Z,3.40
2022-12-07T10:09:11.677Z,4.70
2022-12-07T10:12:01.129Z,4.25
2022-12-07T10:15:05.077Z,4.00
2022-12-07T10:17:33.291Z,3.05
2022-12-07T10:20:21.978Z,3.97
2022-12-07T10:23:05.609Z,3.58
2022-12-07T10:25:37.388Z,3.38
2022-12-07T10:28:15.467Z,3.08
2022-12-07T10:30:57.676Z,3.00
2022-12-07T10:33:37.469Z,2.75
2022-12-07T10:36:20.345Z,2.43
2022-12-07T10:38:50.497Z,2.08
2022-12-07T10:41:20.976Z,2.50
2022-12-07T10:43:51.016Z,2.00
2022-12-07T10:46:58.583Z,2.80
2022-12-07T10:50:17.671Z,2.13
2022-12-07T10:53:07.956Z,2.67
2022-12-07T10:55:52.180Z,2.10
2022-12-07T10:58:38.671Z,1.88
2022-12-07T11:01:15.623Z,2.83
2022-12-07T11:04:06.936Z,2.00
2022-12-07T11:06:39.624Z,2.38
2022-12-07T11:10:06.158Z,1.93
2022-12-07T11:12:28.797Z,1.80
2022-12-07T11:15:15.775Z,2.93
2022-12-07T11:17:51.899Z,2.67
2022-12-07T11:20:37.292Z,3.60
2022-12-07T11:23:14.156Z,2.80
2022-12-07T11:25:50.290Z,2.17
2022-12-07T11:28:32.625Z,2.50
2022-12-07T11:31:10.893Z,2.55
2022-12-07T11:33:45.634Z,2.60
2022-12-07T11:36:27.615Z,2.57
2022-12-07T11:38:59.480Z,2.67
2022-12-07T11:41:31.880Z,2.40
2022-12-07T11:44:07.035Z,2.78
2022-12-07T11:46:49.219Z,2.63
2022-12-07T11:49:24.879Z,2.78
2022-12-07T11:51:57.032Z,3.08
2022-12-07T11:54:28.971Z,3.17
2022-12-07T11:57:01.650Z,2.83
2022-12-07T11:59:35.074Z,2.30
2022-12-07T12:02:14.972Z,3.50
2022-12-07T12:04:51.898Z,3.50
2022-12-07T12:10:20.417Z,5.07
2022-12-07T12:16:37.124Z,8.30
2022-12-07T12:19:20.147Z,10.98
2022-12-07T12:21:52.069Z,7.63
2022-12-07T12:24:26.644Z,5.20
2022-12-07T12:27:00.751Z,4.40
2022-12-07T12:29:33.797Z,4.10
2022-12-07T12:32:15.471Z,4.00
2022-12-07T12:35:01.949Z,4.82
2022-12-07T12:37:47.053Z,4.60
2022-12-07T12:40:53.909Z,3.75
2022-12-07T12:43:49.994Z,4.70
2022-12-07T12:46:49.892Z,3.85
2022-12-07T12:50:10.976Z,4.70
2022-12-07T12:52:58.742Z,4.50
2022-12-07T12:55:56.483Z,4.53
2022-12-07T12:58:36.431Z,4.38
2022-12-07T13:01:39.752Z,5.78
2022-12-07T13:04:34.247Z,5.47
2022-12-07T13:07:03.584Z,5.68
2022-12-07T13:09:35.296Z,5.22
2022-12-07T13:12:07.291Z,5.28
2022-12-07T13:15:00.423Z,4.55
2022-12-07T13:17:57.911Z,4.93
2022-12-07T13:20:52.542Z,4.65
2022-12-07T13:23:34.785Z,3.80
2022-12-07T13:26:17.927Z,3.90
2022-12-07T13:28:48.178Z,3.70
2022-12-07T13:31:23.060Z,3.38
2022-12-07T13:33:51.079Z,3.50
2022-12-07T13:36:23.525Z,3.58
2022-12-07T13:38:55.716Z,5.38
2022-12-07T13:41:24.901Z,5.47
2022-12-07T13:44:04.900Z,4.57
2022-12-07T13:46:44.304Z,4.95
2022-12-07T13:49:23.314Z,4.97
2022-12-07T13:51:52.101Z,5.00
2022-12-07T13:54:22.323Z,5.03
2022-12-07T13:56:53.026Z,6.00
2022-12-07T13:59:23.689Z,5.28
2022-12-07T14:01:54.368Z,5.55
2022-12-07T14:04:33.524Z,5.30
2022-12-07T14:07:02.945Z,5.85
2022-12-07T14:09:32.407Z,6.28
2022-12-07T14:12:00.890Z,6.25
2022-12-07T14:14:36.508Z,6.47
2022-12-07T14:17:16.467Z,6.13
2022-12-07T14:19:51.195Z,5.18
2022-12-07T14:22:26.718Z,5.43
2022-12-07T14:25:20.700Z,6.20
2022-12-07T14:27:59.142Z,6.07
2022-12-07T14:30:29.575Z,5.57
2022-12-07T14:33:01.154Z,5.60
2022-12-07T14:35:29.964Z,5.35
2022-12-07T14:37:58.321Z,5.07
2022-12-07T14:40:29.471Z,5.10
2022-12-07T14:42:59.896Z,5.75
2022-12-07T14:45:27.891Z,5.00
2022-12-07T14:53:38.412Z,5.75
2022-12-07T14:56:08.571Z,5.97
2022-12-07T14:58:36.518Z,5.68
2022-12-07T15:01:04.878Z,5.45
2022-12-07T15:03:33.009Z,9.85
2022-12-07T15:06:01.056Z,6.43
2022-12-07T15:08:29.373Z,7.45
2022-12-07T15:10:57.346Z,7.75
2022-12-07T15:13:44.010Z,8.90
2022-12-07T15:16:14.823Z,9.85
2022-12-07T15:18:53.167Z,11.80
2022-12-07T15:21:30.747Z,9.38
2022-12-07T15:23:58.833Z,10.68
2022-12-07T15:26:26.837Z,8.10
2022-12-07T15:28:56.607Z,7.80
2022-12-07T15:31:54.103Z,7.72
2022-12-07T15:34:12.537Z,8.15
2022-12-07T15:36:40.539Z,8.73
2022-12-07T15:39:15.761Z,7.93
2022-12-07T15:41:43.830Z,7.13
2022-12-07T15:44:32.069Z,6.88
2022-12-07T15:47:00.145Z,8.70
2022-12-07T15:49:28.890Z,11.50
2022-12-07T15:51:57.006Z,16.27
2022-12-07T15:54:26.657Z,14.45
2022-12-07T15:56:54.669Z,10.52
2022-12-07T15:59:24.526Z,11.48
2022-12-07T16:01:52.867Z,10.20
2022-12-07T16:04:21.084Z,14.32
2022-12-07T16:06:49.225Z,23.17
2022-12-07T16:09:17.158Z,24.40
2022-12-07T16:11:45.159Z,13.10
2022-12-07T16:14:13.102Z,9.07
2022-12-07T16:16:42.710Z,14.68
2022-12-07T16:19:11.929Z,15.25
2022-12-07T16:21:40.009Z,17.58
2022-12-07T16:24:09.179Z,15.57
2022-12-07T16:26:37.143Z,15.18
2022-12-07T16:29:05.122Z,14.20
2022-12-07T16:31:33.162Z,12.18
2022-12-07T16:34:02.580Z,19.95
2022-12-07T16:39:19.324Z,8.90
2022-12-07T16:41:47.434Z,8.23
2022-12-07T16:44:16.032Z,7.85
2022-12-07T16:46:44.530Z,7.90
2022-12-07T16:49:15.962Z,9.50
2022-12-07T16:51:44.675Z,10.13
2022-12-07T16:54:14.503Z,8.75
2022-12-07T16:56:42.826Z,9.60
2022-12-07T16:59:10.853Z,10.95
2022-12-07T17:01:39.652Z,10.25
2022-12-07T17:04:08.239Z,12.98
2022-12-07T17:06:37.680Z,13.70
2022-12-07T17:09:09.731Z,12.50
2022-12-07T17:11:37.890Z,11.35
2022-12-07T17:14:23.572Z,12.00
2022-12-07T17:16:51.695Z,11.55
2022-12-07T17:19:19.738Z,12.93
2022-12-07T17:21:49.661Z,13.65
2022-12-07T17:24:18.533Z,13.20
2022-12-07T17:26:47.699Z,13.15
2022-12-07T17:29:17.634Z,14.68
2022-12-07T17:31:50.923Z,15.90
2022-12-07T17:34:20.495Z,14.75
2022-12-07T17:36:49.832Z,15.05
2022-12-07T17:39:19.883Z,15.25
2022-12-07T17:42:05.440Z,13.75
2022-12-07T17:44:33.759Z,12.43
2022-12-07T17:47:02.662Z,11.93
2022-12-07T17:49:31.210Z,13.50
2022-12-07T17:52:18.119Z,13.70
2022-12-07T17:54:46.104Z,12.70
2022-12-07T17:57:14.145Z,12.25
2022-12-07T17:59:42.609Z,12.35
2022-12-07T18:02:11.603Z,11.60
2022-12-07T18:04:40.170Z,10.75
2022-12-07T18:07:09.748Z,12.30
2022-12-07T18:09:37.983Z,11.38
2022-12-07T18:12:06.787Z,9.38
2022-12-07T18:14:34.813Z,8.13
2022-12-07T18:17:02.885Z,7.35
2022-12-07T18:19:31.040Z,8.55
2022-12-07T18:21:59.067Z,8.60
2022-12-07T18:24:34.807Z,11.93
2022-12-07T18:27:04.916Z,9.75
2022-12-07T18:29:32.898Z,9.73
2022-12-07T18:32:01.464Z,8.75
2022-12-07T18:34:30.427Z,9.73
2022-12-07T18:36:58.862Z,9.30
2022-12-07T18:39:33.308Z,10.20
2022-12-07T18:42:02.285Z,10.10
2022-12-07T18:44:34.333Z,9.50
2022-12-07T18:47:02.313Z,12.93
2022-12-07T18:49:30.370Z,11.20
2022-12-07T18:51:58.353Z,11.68
2022-12-07T18:54:27.730Z,11.50
2022-12-07T18:56:57.037Z,10.85
2022-12-07T18:59:42.444Z,10.45
2022-12-07T19:02:12.365Z,10.02
2022-12-07T19:04:40.480Z,9.85
2022-12-07T19:07:08.523Z,11.07
2022-12-07T19:09:38.137Z,11.60
2022-12-07T19:12:06.376Z,11.35
2022-12-07T19:14:36.465Z,11.68
2022-12-07T19:17:06.923Z,11.50
2022-12-07T19:19:37.967Z,11.82
2022-12-07T19:22:07.055Z,11.75
2022-12-07T19:24:35.337Z,14.30
2022-12-07T19:27:05.628Z,14.18
2022-12-07T19:29:33.760Z,10.38
2022-12-07T19:32:03.133Z,11.00
2022-12-07T19:34:31.257Z,10.80
2022-12-07T19:37:00.139Z,17.10
2022-12-07T19:39:29.793Z,17.13
2022-12-07T19:41:58.285Z,15.27
2022-12-07T19:44:29.957Z,19.20
2022-12-07T19:47:04.651Z,12.73
2022-12-07T19:49:35.512Z,12.25
2022-12-07T19:52:05.383Z,12.82
2022-12-07T19:54:35.291Z,16.50
2022-12-07T19:57:04.469Z,18.90
2022-12-07T19:59:33.921Z,18.35
2022-12-07T20:02:02.175Z,14.38
2022-12-07T20:04:32.555Z,14.52
2022-12-07T20:07:02.155Z,13.02
2022-12-07T20:09:30.186Z,12.77
2022-12-07T20:12:15.604Z,13.25
2022-12-07T20:14:44.958Z,12.73
2022-12-07T20:17:13.104Z,13.57
2022-12-07T20:19:41.347Z,15.48
2022-12-07T20:22:09.539Z,18.17
2022-12-07T20:24:37.667Z,19.88
2022-12-07T20:27:06.266Z,25.35
2022-12-07T20:29:34.348Z,24.13
2022-12-07T20:32:04.158Z,31.98
2022-12-07T20:34:32.184Z,34.90
2022-12-07T20:37:00.302Z,18.08
2022-12-07T20:39:28.414Z,14.32
2022-12-07T20:42:14.198Z,12.82
2022-12-07T20:44:49.300Z,12.98
2022-12-07T20:47:18.934Z,14.35
2022-12-07T20:49:46.927Z,13.88
2022-12-07T20:52:14.901Z,13.48
2022-12-07T20:54:42.866Z,13.88
2022-12-07T20:57:10.938Z,14.07
2022-12-07T20:59:41.680Z,13.65
2022-12-07T21:02:12.899Z,15.38
2022-12-07T21:04:42.484Z,14.90
2022-12-07T21:07:10.564Z,14.98
2022-12-07T21:09:38.797Z,14.75
2022-12-07T21:12:11.081Z,14.52
2022-12-07T21:14:52.919Z,15.52
2022-12-07T21:17:20.925Z,14.43
2022-12-07T21:19:50.284Z,15.57
2022-12-07T21:22:18.264Z,15.55
2022-12-07T21:24:46.255Z,14.50
2022-12-07T21:27:14.229Z,15.70
2022-12-07T21:29:44.828Z,15.93
2022-12-07T21:32:14.892Z,16.40
2022-12-07T21:34:43.032Z,15.45
2022-12-07T21:37:12.399Z,14.88
2022-12-07T21:39:40.355Z,14.35
2022-12-07T21:42:08.389Z,15.77
2022-12-07T21:44:55.327Z,16.10
2022-12-07T21:47:23.323Z,19.25
2022-12-07T21:49:51.301Z,19.52
2022-12-07T21:52:20.601Z,17.35
2022-12-07T21:54:49.280Z,16.90
2022-12-07T21:57:17.231Z,16.35
2022-12-07T21:59:45.439Z,14.02
2022-12-07T22:02:15.291Z,13.90
2022-12-07T22:04:43.336Z,13.00
2022-12-07T22:07:11.317Z,13.52
2022-12-07T22:09:40.771Z,14.40
2022-12-07T22:12:08.877Z,14.88
2022-12-07T22:14:54.215Z,28.63
2022-12-07T22:17:22.192Z,28.80
2022-12-07T22:19:50.147Z,27.67
2022-12-07T22:22:18.142Z,30.70
2022-12-07T22:24:48.186Z,30.83
2022-12-07T22:27:16.292Z,25.80
2022-12-07T22:29:44.251Z,21.27
2022-12-07T22:32:46.768Z,19.15
2022-12-07T22:35:00.702Z,14.80
2022-12-07T22:37:30.652Z,13.00
2022-12-07T22:40:00.042Z,14.20
2022-12-07T22:42:28.030Z,12.82
2022-12-07T22:44:55.985Z,15.35
2022-12-07T22:47:24.018Z,16.73
2022-12-07T22:49:52.478Z,17.92
2022-12-07T22:52:20.628Z,17.85
2022-12-07T22:54:48.579Z,17.92
2022-12-07T22:57:17.899Z,17.13
2022-12-07T22:59:45.887Z,19.20
2022-12-07T23:02:13.922Z,17.02
2022-12-07T23:04:42.089Z,17.15
2022-12-07T23:07:10.237Z,16.60
2022-12-07T23:09:38.246Z,15.00
2022-12-07T23:12:24.540Z,13.35
2022-12-07T23:14:54.670Z,14.35
2022-12-07T23:17:22.631Z,14.95
2022-12-07T23:19:55.527Z,14.20
2022-12-07T23:22:24.096Z,13.95
2022-12-07T23:24:52.032Z,11.95
2022-12-07T23:27:20.023Z,12.00
2022-12-07T23:29:47.987Z,11.32
2022-12-07T23:32:17.350Z,10.27
2022-12-07T23:34:45.511Z,10.45
2022-12-07T23:37:13.470Z,9.73
2022-12-07T23:39:41.576Z,11.90
2022-12-07T23:42:09.589Z,11.52
2022-12-07T23:44:47.795Z,11.95
2022-12-07T23:47:17.188Z,10.65
2022-12-07T23:49:45.273Z,11.15
2022-12-07T23:52:13.337Z,10.40
2022-12-07T23:54:41.344Z,9.10
2022-12-07T23:57:09.322Z,10.05
2022-12-07T23:59:38.587Z,10.45
